»·PEaware :: N5699D KSBA-KBUR

N5699D :: KSBA-KBUR

FLIGHT INFORMATION

Flight Status: Arrived
Operator: Privately registered:
United States
More flights under this callsign
Pilot: Aaron W. (17634)
Aircraft: PIPER PA-28R-201 ARROW
(P28R)
More flights by this aircraft type
Origin: KSBA Santa Barbara Mun
United States
Destination: KBUR Bob Hope-Burbank
United States
More flights between these airports :: More routes between these airports
Route: +
File this flight plan on PilotEdge
Remarks: CAT8
Altitude:
(Current/Filed)
7,500ft
Speed:
(Current/Filed)
0kts
Departed: 05-Feb-19 03:09 PM
Arrived: 05-Feb-19 03:55 PM
Distance/Time
Traveled:
75nm/0:46
Distance/Time
To Go:
Arrived

Flight Plot

Page will automatically refresh every two minutes.


Map Options




Map Legend


Flown Route
Filed Route
Departure Airport
Arrival Airport
Navaid (VOR, NDB)
Fix

Horizontal Profiles

Position Reports

Time Latitude Longitude Heading Altitude Ground
Speed
05-Feb-19 15:00 34.422696 -119.835704 275 16ft 0kts
05-Feb-19 15:01 34.422696 -119.835704 275 16ft 0kts
05-Feb-19 15:02 34.422727 -119.835985 278 16ft 5kts
05-Feb-19 15:03 34.423515 -119.837370 347 16ft 8kts
05-Feb-19 15:04 34.426250 -119.838209 346 16ft 8kts
05-Feb-19 15:05 34.426745 -119.835804 89 16ft 8kts
05-Feb-19 15:06 34.426791 -119.834768 61 16ft 0kts
05-Feb-19 15:07 34.426997 -119.834613 4 16ft 0kts
05-Feb-19 15:08 34.427590 -119.848169 268 264ft 96kts
05-Feb-19 15:09 34.426473 -119.883994 265 1134ft 114kts
05-Feb-19 15:10 34.422326 -119.924204 261 1471ft 128kts
05-Feb-19 15:11 34.416447 -119.967409 252 1510ft 129kts
05-Feb-19 15:12 34.392484 -119.966068 101 2250ft 116kts
05-Feb-19 15:13 34.394254 -119.926890 84 2958ft 117kts
05-Feb-19 15:14 34.396704 -119.887487 86 3619ft 118kts
05-Feb-19 15:15 34.398622 -119.847567 88 4233ft 119kts
05-Feb-19 15:16 34.398869 -119.807433 89 4790ft 120kts
05-Feb-19 15:17 34.399071 -119.766799 89 5302ft 121kts
05-Feb-19 15:18 34.400098 -119.725972 86 5802ft 121kts
05-Feb-19 15:19 34.399752 -119.684812 94 6260ft 123kts
05-Feb-19 15:20 34.394706 -119.643994 99 6718ft 123kts
05-Feb-19 15:21 34.389008 -119.602875 98 7133ft 124kts
05-Feb-19 15:22 34.383101 -119.561322 99 7467ft 128kts
05-Feb-19 15:23 34.376393 -119.517634 99 7507ft 134kts
05-Feb-19 15:24 34.369749 -119.472935 99 7515ft 135kts
05-Feb-19 15:25 34.363220 -119.428082 102 7514ft 135kts
05-Feb-19 15:26 34.356551 -119.383457 99 7516ft 135kts
05-Feb-19 15:27 34.349807 -119.338910 100 7503ft 135kts
05-Feb-19 15:28 34.343099 -119.294274 98 7492ft 135kts
05-Feb-19 15:29 34.336851 -119.249673 101 7480ft 135kts
05-Feb-19 15:30 34.330150 -119.205101 99 7485ft 134kts
05-Feb-19 15:31 34.323794 -119.160738 99 7494ft 134kts
05-Feb-19 15:32 34.317348 -119.116346 99 7503ft 134kts
05-Feb-19 15:33 34.311153 -119.071968 100 7511ft 134kts
05-Feb-19 15:34 34.304497 -119.027664 99 7517ft 134kts
05-Feb-19 15:35 34.298019 -118.983470 99 7509ft 135kts
05-Feb-19 15:36 34.291522 -118.938935 99 7498ft 135kts
05-Feb-19 15:37 34.284909 -118.894758 100 7484ft 135kts
05-Feb-19 15:38 34.278150 -118.850771 98 7493ft 134kts
05-Feb-19 15:39 34.271810 -118.806804 97 7502ft 134kts
05-Feb-19 15:40 34.265764 -118.762785 99 7429ft 134kts
05-Feb-19 15:41 34.259080 -118.719259 99 7016ft 132kts
05-Feb-19 15:42 34.252469 -118.676683 100 6388ft 132kts
05-Feb-19 15:43 34.246436 -118.636383 100 5736ft 129kts
05-Feb-19 15:44 34.240951 -118.596912 97 5136ft 129kts
05-Feb-19 15:45 34.236566 -118.556574 100 4640ft 127kts
05-Feb-19 15:46 34.230702 -118.517936 97 4372ft 118kts
05-Feb-19 15:47 34.227269 -118.480756 97 4042ft 119kts
05-Feb-19 15:48 34.222499 -118.443593 118 3506ft 116kts
05-Feb-19 15:49 34.204611 -118.413345 140 2889ft 112kts
05-Feb-19 15:50 34.187304 -118.385075 99 2234ft 110kts
05-Feb-19 15:51 34.182062 -118.351957 98 2015ft 101kts
05-Feb-19 15:52 34.190861 -118.330822 350 1375ft 91kts
05-Feb-19 15:53 34.197647 -118.350966 270 799ft 74kts
05-Feb-19 15:54 34.197021 -118.360314 182 780ft 3kts
05-Feb-19 15:55 34.196665 -118.359205 143 780ft 12kts

Navigation Log

Ident Type
Flight plan parsing failed, navigation log unavailable